createdAt,value
2023-01-17T00:02:34.171Z,2.85
2023-01-17T00:07:54.486Z,2.84
2023-01-17T00:13:01.913Z,2.84
2023-01-17T00:18:08.587Z,2.83
2023-01-17T00:24:01.111Z,2.84
2023-01-17T00:29:03.117Z,2.85
2023-01-17T00:34:05.373Z,2.87
2023-01-17T00:39:07.028Z,2.89
2023-01-17T00:44:27.469Z,2.89
2023-01-17T00:49:49.916Z,2.91
2023-01-17T00:55:12.527Z,2.92
2023-01-17T01:00:33.547Z,2.94
2023-01-17T01:05:56.104Z,2.95
2023-01-17T01:11:16.634Z,2.94
2023-01-17T01:16:38.738Z,2.91
2023-01-17T01:22:01.562Z,2.87
2023-01-17T01:27:24.636Z,2.86
2023-01-17T01:32:44.832Z,2.82
2023-01-17T01:37:47.858Z,2.79
2023-01-17T01:42:54.211Z,2.74
2023-01-17T01:48:21.131Z,2.68
2023-01-17T01:53:23.020Z,2.65
2023-01-17T01:58:28.108Z,2.64
2023-01-17T02:03:31.884Z,2.62
2023-01-17T02:08:51.400Z,2.56
2023-01-17T02:13:55.279Z,2.50
2023-01-17T02:19:00.224Z,2.49
2023-01-17T02:24:20.855Z,2.48
2023-01-17T02:29:34.829Z,2.47
2023-01-17T02:35:01.014Z,2.48
2023-01-17T02:40:06.490Z,2.50
2023-01-17T02:45:08.812Z,2.51
2023-01-17T02:50:18.452Z,2.51
2023-01-17T02:55:30.444Z,2.52
2023-01-17T03:01:01.160Z,2.54
2023-01-17T03:06:17.136Z,2.56
2023-01-17T03:11:23.233Z,2.58
2023-01-17T03:16:29.525Z,2.58
2023-01-17T03:21:33.786Z,2.52
2023-01-17T03:26:35.624Z,2.41
2023-01-17T03:31:39.596Z,2.34
2023-01-17T03:36:44.095Z,2.34
2023-01-17T03:41:45.837Z,2.33
2023-01-17T03:46:47.671Z,2.31
2023-01-17T03:51:50.496Z,2.31
2023-01-17T03:56:52.505Z,2.31
2023-01-17T04:01:58.958Z,2.31
2023-01-17T04:07:04.751Z,2.24
2023-01-17T04:12:09.534Z,2.15
2023-01-17T04:17:14.590Z,2.10
2023-01-17T04:22:16.574Z,2.10
2023-01-17T04:27:24.408Z,2.12
2023-01-17T04:32:29.902Z,2.18
2023-01-17T04:37:31.639Z,2.23
2023-01-17T04:42:37.344Z,2.25
2023-01-17T04:47:43.976Z,2.31
2023-01-17T04:52:50.177Z,2.32
2023-01-17T04:57:54.637Z,2.31
2023-01-17T05:03:03.486Z,2.27
2023-01-17T05:08:11.192Z,2.29
2023-01-17T05:13:13.175Z,2.35
2023-01-17T05:18:18.389Z,2.36
2023-01-17T05:23:20.212Z,2.35
2023-01-17T05:28:26.729Z,2.31
2023-01-17T05:33:31.289Z,2.25
2023-01-17T05:38:35.140Z,2.19
2023-01-17T05:43:39.890Z,1.99
2023-01-17T05:48:46.776Z,1.88
2023-01-17T05:53:51.197Z,1.98
2023-01-17T05:58:53.017Z,2.27
2023-01-17T06:03:59.942Z,2.46
2023-01-17T06:09:06.601Z,2.26
2023-01-17T06:14:10.500Z,1.95
2023-01-17T06:19:13.382Z,1.77
2023-01-17T06:24:17.477Z,1.59
2023-01-17T06:29:22.598Z,1.44
2023-01-17T06:34:24.631Z,1.29
2023-01-17T06:39:26.437Z,1.19
2023-01-17T06:44:40.443Z,1.20
2023-01-17T06:49:45.961Z,1.30
2023-01-17T06:54:51.595Z,1.19
2023-01-17T06:59:55.729Z,1.17
2023-01-17T07:04:57.446Z,1.17
2023-01-17T07:10:00.397Z,1.12
2023-01-17T07:15:05.764Z,1.09
2023-01-17T07:20:10.348Z,0.96
2023-01-17T07:25:14.606Z,0.70
2023-01-17T07:30:21.617Z,0.56
2023-01-17T07:35:26.614Z,0.60
2023-01-17T07:40:28.519Z,0.52
2023-01-17T07:45:33.178Z,0.51
2023-01-17T07:50:42.189Z,0.64
2023-01-17T07:55:46.250Z,0.89
2023-01-17T08:00:48.203Z,0.99
2023-01-17T08:05:57.839Z,0.87
2023-01-17T08:10:59.890Z,0.72
2023-01-17T08:16:04.488Z,0.72
2023-01-17T08:21:14.315Z,0.88
2023-01-17T08:26:22.263Z,0.91
2023-01-17T08:31:30.332Z,1.07
2023-01-17T08:36:32.278Z,1.18
2023-01-17T08:41:34.812Z,1.00
2023-01-17T08:46:38.295Z,0.86
2023-01-17T08:51:40.363Z,0.71
2023-01-17T08:56:44.736Z,0.91
2023-01-17T09:01:48.926Z,0.97
2023-01-17T09:06:53.061Z,1.02
2023-01-17T09:11:56.284Z,1.05
2023-01-17T09:16:58.264Z,1.03
2023-01-17T09:22:00.120Z,1.10
2023-01-17T09:27:02.079Z,1.19
2023-01-17T09:32:04.347Z,1.16
2023-01-17T09:37:08.285Z,1.51
2023-01-17T09:42:25.621Z,2.16
2023-01-17T09:47:44.369Z,3.05
2023-01-17T09:52:46.355Z,3.44
2023-01-17T09:58:01.426Z,3.07
2023-01-17T10:03:22.336Z,2.91
2023-01-17T10:09:08.123Z,2.81
2023-01-17T10:14:31.147Z,2.42
2023-01-17T10:20:14.416Z,1.07
2023-01-17T10:25:39.525Z,0.37
2023-01-17T10:30:49.926Z,0.33
2023-01-17T10:36:08.938Z,0.51
2023-01-17T10:41:20.991Z,0.83
2023-01-17T10:46:28.969Z,1.02
2023-01-17T10:51:47.553Z,1.30
2023-01-17T10:56:49.308Z,1.51
2023-01-17T11:01:53.323Z,1.80
2023-01-17T11:07:20.596Z,2.19
2023-01-17T11:12:41.498Z,2.52
2023-01-17T11:17:53.088Z,2.79
2023-01-17T11:23:06.760Z,2.72
2023-01-17T11:28:38.801Z,2.62
2023-01-17T11:33:45.280Z,2.78
2023-01-17T11:38:56.301Z,2.98
2023-01-17T11:44:02.299Z,3.33
2023-01-17T11:49:05.715Z,3.79
2023-01-17T11:54:39.206Z,4.25
2023-01-17T11:59:45.158Z,4.72
2023-01-17T12:05:10.555Z,4.94
2023-01-17T12:10:38.048Z,5.26
2023-01-17T12:16:00.261Z,4.98
2023-01-17T12:21:20.563Z,5.45
2023-01-17T12:26:34.335Z,5.27
2023-01-17T12:32:03.551Z,4.96
2023-01-17T12:37:21.076Z,5.45
2023-01-17T12:42:31.879Z,4.97
2023-01-17T12:47:36.281Z,5.00
2023-01-17T12:53:01.897Z,5.57
2023-01-17T12:58:14.966Z,6.20
2023-01-17T13:03:24.742Z,6.25
2023-01-17T13:08:38.787Z,6.37
2023-01-17T13:13:44.036Z,5.93
2023-01-17T13:18:52.585Z,6.24
2023-01-17T13:23:59.154Z,5.50
2023-01-17T13:29:21.802Z,4.57
2023-01-17T13:34:35.048Z,4.05
2023-01-17T13:40:29.478Z,3.86
2023-01-17T13:45:33.725Z,3.79
2023-01-17T13:50:41.947Z,3.53
2023-01-17T13:55:46.084Z,4.01
2023-01-17T14:00:49.612Z,5.21
2023-01-17T14:05:57.494Z,5.87
2023-01-17T14:11:09.809Z,4.74
2023-01-17T14:16:21.773Z,5.38
2023-01-17T14:21:35.688Z,5.80
2023-01-17T14:26:55.621Z,6.00
2023-01-17T14:32:02.619Z,5.73
2023-01-17T14:37:32.624Z,5.71
2023-01-17T14:42:35.955Z,5.13
2023-01-17T14:47:39.454Z,4.67
2023-01-17T14:52:47.092Z,4.27
2023-01-17T14:57:57.763Z,3.99
2023-01-17T15:03:05.254Z,3.78
2023-01-17T15:08:13.840Z,3.57
2023-01-17T15:13:18.123Z,3.44
2023-01-17T15:18:29.980Z,3.32
2023-01-17T15:23:51.358Z,3.21
2023-01-17T15:28:56.432Z,2.98
2023-01-17T15:33:58.257Z,2.79
2023-01-17T15:39:14.985Z,2.59
2023-01-17T15:44:39.081Z,2.48
2023-01-17T15:49:52.508Z,2.32
2023-01-17T15:55:01.468Z,2.22
2023-01-17T16:00:21.496Z,2.11
2023-01-17T16:05:32.974Z,2.01
2023-01-17T16:10:44.401Z,1.84
2023-01-17T16:15:53.086Z,1.82
2023-01-17T16:21:01.291Z,1.77
2023-01-17T16:26:10.868Z,1.66
2023-01-17T16:31:12.728Z,1.65
2023-01-17T16:36:20.881Z,1.58
2023-01-17T16:41:29.571Z,1.48
2023-01-17T16:46:38.609Z,1.39
2023-01-17T16:51:48.758Z,1.34
2023-01-17T16:56:50.682Z,1.27
2023-01-17T17:01:53.150Z,1.14
2023-01-17T17:06:54.911Z,1.11
2023-01-17T17:12:01.639Z,1.10
2023-01-17T17:17:06.935Z,0.97
2023-01-17T17:22:09.244Z,0.93
2023-01-17T17:27:15.489Z,0.88
2023-01-17T17:32:19.488Z,0.70
2023-01-17T17:37:23.887Z,0.58
2023-01-17T17:42:25.925Z,0.51
2023-01-17T17:47:29.523Z,0.46
2023-01-17T17:52:33.637Z,0.40
2023-01-17T17:57:35.484Z,0.34
2023-01-17T18:02:40.384Z,0.29
2023-01-17T18:07:44.394Z,0.22
2023-01-17T18:12:50.963Z,0.16
2023-01-17T18:17:55.660Z,0.20
2023-01-17T18:23:02.220Z,0.20
2023-01-17T18:28:06.397Z,0.15
2023-01-17T18:33:08.104Z,0.08
2023-01-17T18:38:11.546Z,0.07
2023-01-17T18:43:18.062Z,0.06
2023-01-17T18:48:19.717Z,0.06
2023-01-17T18:53:25.936Z,0.05
2023-01-17T18:58:31.851Z,0.03
2023-01-17T19:03:36.778Z,0.02
2023-01-17T19:08:38.622Z,0.04
2023-01-17T19:13:42.820Z,0.03
2023-01-17T19:18:52.075Z,-0.03
2023-01-17T19:23:56.234Z,-0.09
2023-01-17T19:29:00.429Z,-0.08
2023-01-17T19:40:00.799Z,-0.21
2023-01-17T19:45:03.181Z,-0.23
2023-01-17T19:50:11.629Z,-0.29
2023-01-17T19:55:13.582Z,-0.32
2023-01-17T20:00:20.536Z,-0.31
2023-01-17T20:05:22.372Z,-0.29
2023-01-17T20:10:27.005Z,-0.35
2023-01-17T20:15:29.780Z,-0.39
2023-01-17T20:20:34.366Z,-0.44
2023-01-17T20:25:45.596Z,-0.49
2023-01-17T20:30:52.769Z,-0.47
2023-01-17T20:36:09.155Z,-0.42
2023-01-17T20:41:21.291Z,-0.47
2023-01-17T20:46:25.494Z,-0.54
2023-01-17T20:51:28.653Z,-0.59
2023-01-17T20:56:34.585Z,-0.66
2023-01-17T21:01:37.177Z,-0.69
2023-01-17T21:06:42.963Z,-0.71
2023-01-17T21:11:46.225Z,-0.71
2023-01-17T21:16:50.468Z,-0.73
2023-01-17T21:21:52.289Z,-0.47
2023-01-17T21:26:56.928Z,-0.63
2023-01-17T21:31:58.751Z,-0.72
2023-01-17T21:37:00.537Z,-0.79
2023-01-17T21:42:08.525Z,-0.80
2023-01-17T21:47:12.385Z,-0.79
2023-01-17T21:52:21.638Z,-0.85
2023-01-17T21:57:41.765Z,-0.87
2023-01-17T22:02:49.553Z,-0.87
2023-01-17T22:08:12.045Z,-0.82
2023-01-17T22:13:17.962Z,-0.84
2023-01-17T22:18:25.340Z,-0.88
2023-01-17T22:23:28.415Z,-0.83
2023-01-17T22:28:34.708Z,-0.97
2023-01-17T22:33:39.858Z,-0.98
2023-01-17T22:38:42.416Z,-0.99
2023-01-17T22:43:46.992Z,-1.02
2023-01-17T22:48:52.327Z,-1.07
2023-01-17T22:54:02.714Z,-1.12
2023-01-17T22:59:11.645Z,-1.18
2023-01-17T23:04:14.355Z,-1.20
2023-01-17T23:09:18.183Z,-1.33
2023-01-17T23:14:51.112Z,-1.41
2023-01-17T23:19:54.542Z,-1.51
2023-01-17T23:24:58.884Z,-1.57
2023-01-17T23:30:01.240Z,-1.72
2023-01-17T23:35:05.649Z,-1.72
2023-01-17T23:40:14.259Z,-1.68
2023-01-17T23:45:16.025Z,-1.68
2023-01-17T23:50:17.743Z,-1.71
2023-01-17T23:55:19.435Z,-1.84
